createdAt,value
2022-09-01T00:01:39.273Z,8.15
2022-09-01T00:06:34.873Z,7.65
2022-09-01T00:11:30.637Z,9.07
2022-09-01T00:16:25.334Z,8.23
2022-09-01T00:21:27.715Z,9.10
2022-09-01T00:26:21.330Z,7.32
2022-09-01T00:31:16.341Z,7.65
2022-09-01T00:36:10.755Z,8.88
2022-09-01T00:41:07.686Z,8.23
2022-09-01T00:46:01.023Z,11.10
2022-09-01T00:50:55.027Z,8.85
2022-09-01T00:55:48.380Z,8.35
2022-09-01T01:00:43.809Z,8.27
2022-09-01T01:05:42.153Z,10.20
2022-09-01T01:10:40.182Z,8.10
2022-09-01T01:15:33.638Z,8.75
2022-09-01T01:20:50.183Z,10.50
2022-09-01T01:25:50.906Z,17.38
2022-09-01T01:30:51.178Z,15.77
2022-09-01T01:35:45.058Z,15.70
2022-09-01T01:40:39.545Z,15.90
2022-09-01T01:45:35.205Z,18.65
2022-09-01T01:50:35.670Z,21.35
2022-09-01T01:55:31.151Z,18.10
2022-09-01T02:00:30.440Z,20.08
2022-09-01T02:05:28.984Z,17.35
2022-09-01T02:10:22.805Z,22.58
2022-09-01T02:15:16.219Z,21.00
2022-09-01T02:20:10.985Z,23.20
2022-09-01T02:25:06.521Z,21.63
2022-09-01T02:30:00.404Z,20.77
2022-09-01T02:35:01.272Z,20.10
2022-09-01T02:39:57.621Z,17.92
2022-09-01T02:44:52.298Z,18.25
2022-09-01T02:49:46.807Z,17.50
2022-09-01T02:54:40.186Z,16.98
2022-09-01T02:59:37.293Z,16.23
2022-09-01T03:04:35.132Z,16.15
2022-09-01T03:09:28.869Z,15.48
2022-09-01T03:14:24.267Z,16.23
2022-09-01T03:19:19.160Z,14.05
2022-09-01T03:24:17.929Z,13.50
2022-09-01T03:29:12.095Z,13.07
2022-09-01T03:34:06.707Z,14.80
2022-09-01T03:39:00.071Z,14.65
2022-09-01T03:43:58.162Z,14.97
2022-09-01T03:48:56.765Z,14.38
2022-09-01T03:53:54.463Z,17.70
2022-09-01T03:58:48.215Z,16.60
2022-09-01T04:03:45.317Z,17.65
2022-09-01T04:08:39.448Z,14.13
2022-09-01T04:13:38.478Z,17.10
2022-09-01T04:18:31.876Z,15.57
2022-09-01T04:23:30.056Z,14.25
2022-09-01T04:28:26.168Z,12.70
2022-09-01T04:33:19.712Z,11.93
2022-09-01T04:38:16.006Z,11.80
2022-09-01T04:43:11.534Z,8.88
2022-09-01T04:48:05.918Z,8.68
2022-09-01T04:53:00.906Z,11.27
2022-09-01T04:57:54.828Z,9.75
2022-09-01T05:02:53.314Z,8.70
2022-09-01T05:07:46.904Z,8.07
2022-09-01T05:12:41.245Z,7.80
2022-09-01T05:17:34.587Z,8.10
2022-09-01T05:22:31.478Z,8.57
2022-09-01T05:27:25.730Z,7.13
2022-09-01T05:32:20.217Z,7.28
2022-09-01T05:37:16.055Z,8.25
2022-09-01T05:42:10.821Z,8.35
2022-09-01T05:47:05.496Z,9.02
2022-09-01T05:51:59.082Z,6.57
2022-09-01T05:56:53.625Z,7.78
2022-09-01T06:01:50.416Z,8.63
2022-09-01T06:07:06.162Z,9.57
2022-09-01T06:12:02.819Z,9.05
2022-09-01T06:16:58.152Z,7.90
2022-09-01T06:21:51.441Z,9.68
2022-09-01T06:26:46.322Z,8.27
2022-09-01T06:31:40.360Z,8.48
2022-09-01T06:36:40.400Z,8.60
2022-09-01T06:41:33.669Z,8.00
2022-09-01T06:46:28.104Z,7.63
2022-09-01T06:51:25.068Z,7.20
2022-09-01T06:56:22.736Z,7.13
2022-09-01T07:01:23.313Z,8.10
2022-09-01T07:22:07.012Z,6.43
2022-09-01T07:27:09.345Z,6.53
2022-09-01T07:47:53.573Z,6.35
2022-09-01T07:52:49.684Z,6.38
2022-09-01T07:57:46.181Z,5.97
2022-09-01T08:02:39.643Z,5.97
2022-09-01T08:07:51.724Z,5.18
2022-09-01T08:12:46.980Z,5.65
2022-09-01T08:17:51.458Z,4.32
2022-09-01T08:22:45.217Z,4.47
2022-09-01T08:27:39.903Z,7.13
2022-09-01T08:32:35.323Z,3.70
2022-09-01T08:37:28.864Z,4.43
2022-09-01T08:42:45.516Z,4.22
2022-09-01T08:48:08.338Z,4.40
2022-09-01T08:53:10.490Z,6.65
2022-09-01T08:58:05.750Z,4.05
2022-09-01T09:03:14.746Z,3.95
2022-09-01T09:08:40.234Z,4.00
2022-09-01T09:13:51.694Z,4.47
2022-09-01T09:18:55.659Z,4.40
2022-09-01T09:23:59.596Z,4.00
2022-09-01T09:28:55.131Z,3.67
2022-09-01T09:33:54.498Z,3.95
2022-09-01T09:38:48.396Z,3.50
2022-09-01T09:43:49.374Z,3.67
2022-09-01T09:48:42.774Z,3.28
2022-09-01T09:53:37.584Z,3.45
2022-09-01T09:58:39.679Z,3.58
2022-09-01T10:03:43.140Z,3.60
2022-09-01T10:08:48.171Z,4.20
2022-09-01T10:13:43.293Z,4.15
2022-09-01T10:18:44.846Z,3.60
2022-09-01T10:23:41.806Z,3.95
2022-09-01T10:28:50.722Z,4.43
2022-09-01T10:33:45.114Z,3.95
2022-09-01T10:38:39.244Z,3.70
2022-09-01T10:43:42.760Z,3.72
2022-09-01T10:48:51.848Z,3.45
2022-09-01T10:53:51.229Z,3.60
2022-09-01T11:04:21.546Z,3.40
2022-09-01T11:09:25.179Z,4.03
2022-09-01T11:14:23.102Z,3.55
2022-09-01T11:19:44.472Z,3.90
2022-09-01T11:24:58.120Z,3.25
2022-09-01T11:30:01.163Z,3.75
2022-09-01T11:34:58.639Z,3.42
2022-09-01T11:39:59.351Z,4.15
2022-09-01T11:45:03.774Z,3.20
2022-09-01T11:50:02.240Z,2.90
2022-09-01T11:54:55.909Z,3.20
2022-09-01T11:59:49.268Z,3.40
2022-09-01T12:04:44.022Z,3.58
2022-09-01T12:09:42.798Z,3.03
2022-09-01T12:15:01.929Z,3.05
2022-09-01T12:19:51.505Z,3.42
2022-09-01T12:24:49.588Z,2.90
2022-09-01T12:29:44.440Z,2.75
2022-09-01T12:34:43.063Z,3.35
2022-09-01T12:39:40.043Z,3.10
2022-09-01T12:44:43.641Z,2.60
2022-09-01T12:49:47.989Z,3.13
2022-09-01T12:54:45.880Z,2.97
2022-09-01T12:59:39.300Z,2.90
2022-09-01T13:04:33.817Z,3.00
2022-09-01T13:09:27.244Z,2.60
2022-09-01T13:14:22.548Z,2.85
2022-09-01T13:19:26.326Z,3.00
2022-09-01T13:24:25.782Z,2.72
2022-09-01T13:29:23.427Z,3.42
2022-09-01T13:34:22.143Z,2.72
2022-09-01T13:39:16.897Z,3.00
2022-09-01T13:44:12.046Z,2.85
2022-09-01T13:49:41.993Z,2.80
2022-09-01T13:54:20.721Z,2.90
2022-09-01T13:59:14.194Z,2.80
2022-09-01T14:04:09.143Z,2.60
2022-09-01T14:09:02.474Z,2.75
2022-09-01T14:13:55.839Z,3.17
2022-09-01T14:18:49.193Z,2.85
2022-09-01T14:23:45.850Z,2.88
2022-09-01T14:28:39.971Z,2.80
2022-09-01T14:33:34.162Z,2.63
2022-09-01T14:38:27.491Z,2.50
2022-09-01T14:43:22.321Z,2.53
2022-09-01T14:48:18.244Z,3.05
2022-09-01T14:53:13.083Z,3.05
2022-09-01T14:58:06.945Z,2.97
2022-09-01T15:03:01.898Z,2.35
2022-09-01T15:07:55.616Z,2.53
2022-09-01T15:12:49.794Z,2.80
2022-09-01T15:17:45.978Z,2.22
2022-09-01T15:22:42.042Z,2.65
2022-09-01T15:27:38.334Z,2.75
2022-09-01T15:32:34.192Z,2.60
2022-09-01T15:37:27.568Z,3.22
2022-09-01T15:42:22.391Z,3.08
2022-09-01T15:47:15.730Z,3.15
2022-09-01T15:52:09.082Z,2.85
2022-09-01T15:57:02.442Z,3.58
2022-09-01T16:01:57.944Z,3.00
2022-09-01T16:06:52.654Z,2.80
2022-09-01T16:11:46.531Z,3.45
2022-09-01T16:16:52.939Z,3.30
2022-09-01T16:21:55.595Z,3.42
2022-09-01T16:26:50.684Z,3.10
2022-09-01T16:31:44.126Z,3.28
2022-09-01T16:36:52.937Z,6.93
2022-09-01T16:42:01.253Z,3.33
2022-09-01T16:47:07.361Z,3.28
2022-09-01T16:52:11.926Z,3.00
2022-09-01T16:57:16.341Z,2.72
2022-09-01T17:02:38.491Z,2.50
2022-09-01T17:07:46.734Z,2.75
2022-09-01T17:12:46.981Z,3.25
2022-09-01T17:17:49.783Z,2.85
2022-09-01T17:22:55.200Z,2.92
2022-09-01T17:27:58.126Z,3.85
2022-09-01T17:33:18.442Z,3.28
2022-09-01T17:38:28.744Z,3.67
2022-09-01T17:43:30.139Z,3.08
2022-09-01T17:48:39.651Z,3.83
2022-09-01T17:53:49.126Z,3.05
2022-09-01T17:58:55.494Z,3.28
2022-09-01T18:04:28.171Z,3.28
2022-09-01T18:09:27.954Z,3.53
2022-09-01T18:14:28.468Z,3.20
2022-09-01T18:19:27.528Z,3.55
2022-09-01T18:24:30.149Z,3.65
2022-09-01T18:29:29.560Z,3.60
2022-09-01T18:34:44.866Z,3.88
2022-09-01T18:39:55.517Z,3.20
2022-09-01T18:45:05.117Z,3.67
2022-09-01T18:50:09.710Z,3.90
2022-09-01T18:55:22.148Z,4.93
2022-09-01T19:00:20.737Z,4.03
2022-09-01T19:05:32.726Z,3.90
2022-09-01T19:10:36.433Z,4.55
2022-09-01T19:15:38.464Z,6.28
2022-09-01T19:20:44.246Z,3.58
2022-09-01T19:25:42.866Z,4.10
2022-09-01T19:30:44.104Z,3.70
2022-09-01T19:35:40.419Z,3.67
2022-09-01T19:40:40.521Z,4.80
2022-09-01T19:45:56.098Z,3.80
2022-09-01T19:50:56.512Z,3.45
2022-09-01T19:56:00.477Z,6.40
2022-09-01T20:00:58.243Z,3.78
2022-09-01T20:05:58.138Z,4.63
2022-09-01T20:11:03.359Z,5.82
2022-09-01T20:16:09.358Z,5.43
2022-09-01T20:21:18.827Z,4.72
2022-09-01T20:26:26.879Z,3.90
2022-09-01T20:31:28.005Z,3.65
2022-09-01T20:36:30.173Z,4.18
2022-09-01T20:41:39.327Z,4.63
2022-09-01T20:46:34.170Z,3.20
2022-09-01T20:51:42.915Z,3.53
2022-09-01T20:56:50.849Z,2.88
2022-09-01T21:01:52.906Z,3.70
2022-09-01T21:06:56.761Z,3.72
2022-09-01T21:12:03.509Z,3.63
2022-09-01T21:17:10.835Z,3.22
2022-09-01T21:22:08.722Z,3.28
2022-09-01T21:27:09.435Z,3.55
2022-09-01T21:32:03.006Z,3.88
2022-09-01T21:36:56.354Z,3.50
2022-09-01T21:41:49.959Z,3.30
2022-09-01T21:46:44.816Z,3.75
2022-09-01T21:51:38.248Z,3.08
2022-09-01T21:56:31.703Z,3.35
2022-09-01T22:01:30.994Z,3.00
2022-09-01T22:06:26.516Z,3.75
2022-09-01T22:11:21.251Z,6.82
2022-09-01T22:16:19.159Z,4.95
2022-09-01T22:21:13.466Z,3.63
2022-09-01T22:26:11.399Z,4.05
2022-09-01T22:31:08.434Z,3.47
2022-09-01T22:36:01.757Z,3.55
2022-09-01T22:40:59.554Z,5.47
2022-09-01T22:45:56.392Z,3.53
2022-09-01T22:50:52.271Z,4.88
2022-09-01T22:55:49.642Z,3.38
2022-09-01T23:00:48.590Z,3.50
2022-09-01T23:05:44.959Z,3.33
2022-09-01T23:10:38.395Z,3.70
2022-09-01T23:15:31.812Z,3.30
2022-09-01T23:20:25.261Z,3.40
2022-09-01T23:25:20.481Z,3.88
2022-09-01T23:30:16.425Z,3.45
2022-09-01T23:35:11.319Z,3.75
2022-09-01T23:40:06.204Z,4.47
2022-09-01T23:45:00.940Z,4.85
2022-09-01T23:49:56.381Z,5.00
2022-09-01T23:54:49.749Z,3.70
2022-09-01T23:59:43.148Z,5.13
